Latest Weather Observations for Pallamana

IDS60801

Issued at 5:01 am CDT Tuesday 6 December 2016 (issued every 30 minutes, with the page automatically refreshed every 10 minutes)

About weather observations | Map of weather stations | Latest weather observations for SA | Other Formats
Station Details ID: 024584 Name: PALLAMANA AERODROME Lat: -35.06 Lon: 139.23 Height: 45.0 m
Data from the previous 72 hours. | See also: Recent months at Pallamana
Date/Time
CDT
Temp
°C
App
Temp
°C
Dew
Point
°C
Rel
Hum
%
Delta-T
°C
Wind Press
QNH
hPa
Press
MSL
hPa
Rain since
9am
mm
Dir  Spd
km/h
Gust
km/h
Spd
kts
Gust
kts
06/05:00am 11.5 9.1 8.5 82 1.5 WSW 11 13 6 7 1014.4 1014.2 0.0
06/04:30am 12.1 9.7 8.7 80 1.7 WSW 11 13 6 7 1014.8 1014.6 0.0
06/04:00am 12.4 9.3 8.8 79 1.8 WSW 15 17 8 9 1014.7 1014.5 0.0
06/03:30am 11.7 10.3 8.7 82 1.5 SSW 6 9 3 5 1014.4 1014.2 0.0
06/03:00am 12.2 10.2 8.6 78 1.8 SW 9 11 5 6 1013.8 1013.6 0.0
06/02:30am 11.9 10.4 8.5 80 1.7 SSE 6 7 3 4 1014.0 1013.8 0.0
06/02:00am 11.9 10.7 8.2 78 1.8 SW 4 9 2 5 1014.5 1014.3 0.0
06/01:30am 12.5 10.1 8.5 76 2.0 SW 11 13 6 7 1014.7 1014.5 0.0
06/01:00am 12.1 9.6 8.2 77 1.9 SW 11 13 6 7 1015.0 1014.8 0.0
06/12:30am 12.4 9.9 8.1 75 2.1 SW 11 13 6 7 1014.8 1014.6 0.0
06/12:00am 12.5 10.3 8.0 74 2.2 SW 9 11 5 6 1015.0 1014.8 0.0
 
Date/Time
CDT
Temp
°C
App
Temp
°C
Dew
Point
°C
Rel
Hum
%
Delta-T
°C
Wind Press
QNH
hPa
Press
MSL
hPa
Rain since
9am
mm
Dir  Spd
km/h
Gust
km/h
Spd
kts
Gust
kts
05/11:30pm 13.2 10.7 8.2 71 2.5 SW 11 13 6 7 1015.4 1015.2 0.0
05/11:00pm 13.6 11.1 8.2 70 2.7 SW 11 13 6 7 1015.7 1015.5 0.0
05/10:30pm 14.2 11.3 8.2 67 3.0 SW 13 15 7 8 1015.8 1015.6 0.0
05/10:00pm 14.8 12.3 8.2 64 3.3 WSW 11 15 6 8 1015.7 1015.5 0.0
05/09:30pm 14.8 12.7 8.2 64 3.3 SSW 9 13 5 7 1015.1 1014.9 0.0
05/09:00pm 15.2 12.7 8.3 63 3.5 SSW 11 19 6 10 1014.6 1014.4 0.0
05/08:30pm 15.6 12.4 8.3 62 3.7 S 15 20 8 11 1013.7 1013.5 0.0
05/08:00pm 16.2 12.6 8.3 59 4.0 S 17 20 9 11 1014.2 1014.0 0.0
05/07:30pm 16.7 12.5 8.3 57 4.3 S 20 28 11 15 1013.9 1013.7 0.0
05/07:00pm 17.4 13.3 7.7 53 4.9 SSW 19 22 10 12 1014.8 1014.6 0.0
05/06:30pm 17.8 13.6 7.3 50 5.3 S 19 24 10 13 1014.2 1014.0 0.0
05/06:00pm 18.2 13.6 6.5 46 5.8 S 20 28 11 15 1013.9 1013.7 0.0
05/05:30pm 19.3 13.9 6.3 42 6.5 SSE 24 32 13 17 1013.1 1012.9 0.0
05/05:00pm 19.2 14.2 6.6 44 6.3 S 22 37 12 20 1013.5 1013.3 0.0
05/04:30pm 20.2 15.5 6.2 40 7.0 S 20 32 11 17 1013.7 1013.5 0.0
05/04:00pm 20.9 16.2 5.9 37 7.5 SSW 20 35 11 19 1014.1 1013.9 0.0
05/03:30pm 21.0 16.5 6.3 38 7.4 S 19 30 10 16 1013.9 1013.7 0.0
05/03:00pm 20.6 16.5 6.0 38 7.3 S 17 26 9 14 1013.9 1013.7 0.0
05/02:30pm 20.4 16.4 4.8 36 7.6 S 15 24 8 13 1014.4 1014.2 0.0
05/02:00pm 21.1 17.5 5.1 35 7.9 SE 13 24 7 13 1014.5 1014.3 0.0
05/01:30pm 20.0 15.2 5.6 39 7.1 SW 20 32 11 17 1014.8 1014.6 0.0
05/01:00pm 19.3 14.3 6.5 43 6.4 S 22 33 12 18 1014.5 1014.3 0.0
05/12:30pm 20.1 15.5 6.6 41 6.8 SSW 20 32 11 17 1014.0 1013.8 0.0
05/12:00pm 19.7 14.5 5.5 39 7.0 S 22 35 12 19 1014.2 1014.0 0.0
05/11:30am 20.2 15.8 6.5 41 6.9 S 19 28 10 15 1014.7 1014.5 0.0
05/11:00am 19.7 14.9 5.8 40 6.9 S 20 32 11 17 1014.6 1014.4 0.0
05/10:30am 19.5 15.0 6.8 43 6.4 S 20 32 11 17 1015.0 1014.8 0.0
05/10:00am 19.2 14.8 7.2 45 6.1 SSW 20 30 11 16 1014.8 1014.6 0.0
05/09:30am 18.1 13.5 8.2 52 5.1 SSW 22 35 12 19 1014.5 1014.3 0.0
05/09:00am 18.0 13.7 8.0 52 5.1 S 20 28 11 15 1014.4 1014.2 0.8
05/08:30am 17.3 13.5 7.6 53 4.9 SSW 17 24 9 13 1014.4 1014.2 0.8
05/08:00am 16.4 12.4 8.4 59 4.1 SW 19 26 10 14 1014.2 1014.0 0.8
05/07:30am 15.6 11.8 9.0 65 3.4 SW 19 24 10 13 1013.8 1013.6 0.8
05/07:00am 14.3 11.9 9.9 75 2.3 WSW 13 19 7 10 1013.6 1013.4 0.8
05/06:30am 13.0 10.6 10.1 82 1.5 WSW 13 19 7 10 1013.1 1012.9 0.8
05/06:00am 11.7 9.2 9.7 87 1.0 WSW 13 19 7 10 1012.7 1012.5 0.8
05/05:30am 11.0 8.4 9.4 90 0.8 WSW 13 15 7 8 1012.1 1011.9 0.8
05/05:00am 11.5 8.6 9.7 89 0.9 WSW 15 17 8 9 1012.0 1011.8 0.8
05/04:30am 11.1 8.4 9.1 87 1.0 WSW 13 15 7 8 1011.8 1011.6 0.8
05/04:00am 11.5 9.4 9.7 89 0.9 WSW 11 11 6 6 1011.6 1011.4 0.8
05/03:30am 12.7 10.8 10.4 86 1.2 SSW 11 15 6 8 1011.1 1011.0 0.8
05/03:00am 14.4 11.6 11.2 81 1.7 SSW 17 24 9 13 1010.7 1010.6 0.8
05/02:30am 15.5 12.8 11.6 77 2.1 SSW 17 22 9 12 1010.3 1010.2 0.8
05/02:00am 15.8 12.6 12.0 78 2.1 SW 20 26 11 14 1010.5 1010.4 0.8
05/01:30am 16.4 12.4 11.8 74 2.5 SSW 24 32 13 17 1010.4 1010.3 0.8
05/01:00am 17.5 13.5 11.7 69 3.2 SSW 24 35 13 19 1010.3 1010.2 0.8
05/12:30am 17.6 15.3 14.1 80 2.0 SSW 19 30 10 16 1009.8 1009.7 0.8
05/12:00am 17.1 13.8 14.1 82 1.7 SSW 24 35 13 19 1009.3 1009.2 0.8
 
Date/Time
CDT
Temp
°C
App
Temp
°C
Dew
Point
°C
Rel
Hum
%
Delta-T
°C
Wind Press
QNH
hPa
Press
MSL
hPa
Rain since
9am
mm
Dir  Spd
km/h
Gust
km/h
Spd
kts
Gust
kts
04/11:30pm 18.5 16.0 15.1 80 2.0 SSW 22 32 12 17 1008.9 1008.8 0.8
04/11:00pm 21.1 18.8 14.6 66 3.8 SW 20 26 11 14 1008.1 1008.0 0.8
04/10:30pm 22.1 19.8 14.1 60 4.7 WSW 19 24 10 13 1007.5 1007.4 0.8
04/10:00pm 23.0 19.8 14.2 57 5.2 WSW 24 32 13 17 1007.0 1006.9 0.8
04/09:30pm 23.7 21.3 15.4 59 5.0 WSW 22 33 12 18 1006.4 1006.3 0.8
04/09:06pm 24.5 25.4 16.5 61 4.9 NW 7 46 4 25 1006.1 1006.0 0.8
04/09:00pm 24.7 26.2 17.7 65 4.4 NW 6 9 3 5 1005.4 1005.3 0.8
04/08:30pm 25.5 26.4 17.5 61 5.0 N 9 13 5 7 1004.7 1004.6 0.8
04/08:00pm 26.8 27.1 17.8 57 5.7 N 13 19 7 10 1004.4 1004.3 0.8
04/07:30pm 27.2 26.0 17.4 55 6.2 NNE 20 26 11 14 1004.1 1004.0 0.8
04/07:00pm 27.4 25.9 17.8 55 6.1 NNE 22 30 12 16 1003.6 1003.5 0.8
04/06:30pm 27.1 25.1 18.2 58 5.7 NNE 26 37 14 20 1003.2 1003.1 0.8
04/06:00pm 27.1 24.3 18.3 58 5.6 NNE 30 37 16 20 1003.5 1003.4 0.8
04/05:30pm 27.5 24.6 17.9 55 6.1 NNE 30 39 16 21 1003.4 1003.3 0.8
04/05:00pm 27.7 24.9 17.4 53 6.5 NNE 28 35 15 19 1003.7 1003.6 0.8
04/04:30pm 27.9 25.5 18.2 55 6.2 NNE 28 35 15 19 1003.9 1003.8 0.8
04/04:00pm 27.1 25.8 18.2 58 5.7 NE 22 32 12 17 1004.3 1004.2 0.8
04/03:30pm 26.1 24.9 18.4 62 4.9 NNE 22 30 12 16 1005.0 1004.9 0.8
04/03:00pm 24.2 23.9 19.2 73 3.2 NNE 19 26 10 14 1006.0 1005.9 0.8
04/02:30pm 22.9 22.7 19.8 83 2.0 NNE 20 28 11 15 1006.4 1006.3 0.8
04/02:00pm 22.7 24.7 19.9 84 1.8 ENE 9 15 5 8 1006.6 1006.5 0.8
04/01:30pm 22.5 24.0 19.7 84 1.8 N 11 15 6 8 1007.7 1007.6 0.6
04/01:00pm 22.2 22.5 19.5 85 1.7 NNE 17 20 9 11 1008.7 1008.6 0.4
04/12:30pm 22.4 22.2 19.3 82 2.0 N 19 22 10 12 1009.0 1008.9 0.0
04/12:00pm 23.0 22.8 18.6 76 2.8 N 17 22 9 12 1009.1 1009.0 0.0
04/11:30am 23.4 22.2 17.6 70 3.6 NNW 20 30 11 16 1009.3 1009.2 0.0
04/11:00am 23.2 21.9 17.2 69 3.7 NW 20 28 11 15 1009.4 1009.3 0.0
04/10:30am 23.4 20.4 16.9 67 4.0 NW 28 39 15 21 1009.4 1009.3 0.0
04/10:00am 23.3 19.5 15.7 62 4.6 NW 30 43 16 23 1008.6 1008.5 0.0
04/09:36am 24.8 17.6 13.1 48 6.8 NW 43 65 23 35 1009.2 1009.1 0.0
04/09:30am 24.5 15.5 14.0 52 6.2 NNW 54 82 29 44 1009.2 1009.1 0.0
04/09:22am 26.3 20.4 12.3 41 8.1 N 35 80 19 43 1008.2 1008.1 0.0
04/09:21am 27.2 21.3 11.0 36 9.2 N 33 80 18 43 1008.2 1008.1 0.0
04/09:19am 26.9 22.7 11.1 37 9.0 NNW 24 63 13 34 1008.2 1008.1 0.0
04/09:00am 23.7 21.5 7.8 36 8.4 NNW 9 13 5 7 1008.0 1007.9 0.0
04/08:30am 22.6 20.0 7.7 38 7.8 N 11 15 6 8 1007.8 1007.7 0.0
04/08:00am 21.2 18.0 8.3 43 6.8 N 15 20 8 11 1008.2 1008.1 0.0
04/07:30am 18.0 16.1 9.2 56 4.6 N 9 11 5 6 1007.8 1007.7 0.0
04/07:00am 15.5 14.1 8.7 64 3.5 N 6 7 3 4 1007.7 1007.6 0.0
04/06:30am 14.2 12.0 8.0 66 3.1 NNW 9 13 5 7 1007.8 1007.7 0.0
04/06:00am 12.7 10.7 7.1 69 2.7 N 7 9 4 5 1007.8 1007.7 0.0
04/05:30am 12.6 10.6 7.3 70 2.6 NNW 7 9 4 5 1008.3 1008.2 0.0
04/05:00am 11.6 9.8 7.2 74 2.1 NNW 6 11 3 6 1008.3 1008.2 0.0
04/04:30am 11.6 11.0 7.5 76 2.0 CALM 0 0 0 0 1008.3 1008.2 0.0
04/04:00am 11.7 10.8 7.6 76 2.0 NNW 2 7 1 4 1008.5 1008.4 0.0
04/03:30am 11.9 11.4 7.8 76 2.0 CALM 0 0 0 0 1008.6 1008.5 0.0
04/03:00am 11.6 9.9 7.5 76 2.0 NE 6 9 3 5 1009.0 1008.9 0.0
04/02:30am 11.9 10.7 8.0 77 1.9 WSW 4 7 2 4 1009.4 1009.3 0.0
04/02:00am 12.3 10.8 8.3 76 2.0 WNW 6 9 3 5 1010.3 1010.2 0.0
04/01:30am 12.9 11.4 9.2 78 1.9 WNW 7 9 4 5 1010.7 1010.6 0.0
04/01:00am 14.2 12.5 10.0 76 2.2 NW 9 11 5 6 1010.8 1010.7 0.0
04/12:30am 14.9 12.2 10.3 74 2.4 SW 15 19 8 10 1010.6 1010.5 0.0
04/12:00am 15.2 13.7 10.7 74 2.4 W 9 13 5 7 1011.4 1011.2 0.0
 
Date/Time
CDT
Temp
°C
App
Temp
°C
Dew
Point
°C
Rel
Hum
%
Delta-T
°C
Wind Press
QNH
hPa
Press
MSL
hPa
Rain since
9am
mm
Dir  Spd
km/h
Gust
km/h
Spd
kts
Gust
kts
03/11:30pm 15.0 13.8 10.4 74 2.4 SSW 7 11 4 6 1011.5 1011.3 0.0
03/11:00pm 15.5 13.5 10.2 70 2.8 SW 11 13 6 7 1011.5 1011.3 0.0
03/10:30pm 16.4 14.9 10.4 67 3.2 SSW 9 13 5 7 1011.9 1011.7 0.0
03/10:00pm 17.5 15.1 9.9 61 4.0 SSW 13 17 7 9 1011.9 1011.7 0.0
03/09:30pm 18.0 15.2 9.9 59 4.3 SSW 15 20 8 11 1012.1 1011.9 0.0
03/09:00pm 18.3 14.6 9.6 57 4.6 SW 19 26 10 14 1012.0 1011.8 0.0
03/08:30pm 19.1 15.1 10.4 57 4.7 SW 22 30 12 16 1011.9 1011.7 0.0
03/08:00pm 20.5 17.0 10.2 51 5.6 SW 19 26 10 14 1011.7 1011.5 0.0
03/07:30pm 23.1 19.5 9.7 42 7.3 SSW 19 26 10 14 1011.1 1011.0 0.0
03/07:00pm 24.9 21.2 9.3 37 8.5 SSW 19 26 10 14 1011.0 1010.9 0.0
03/06:30pm 25.9 23.3 9.3 35 9.1 SSW 13 19 7 10 1010.5 1010.4 0.0
03/06:00pm 26.8 22.3 9.9 34 9.4 SSW 24 35 13 19 1010.6 1010.5 0.0
03/05:30pm 27.9 22.5 9.6 31 10.2 SSW 28 37 15 20 1010.3 1010.2 0.0
03/05:00pm 29.8 24.2 7.0 24 12.3 SSW 26 35 14 19 1010.2 1010.1 0.0
03/04:30pm 31.8 27.1 6.1 20 13.8 SSW 20 30 11 16 1010.2 1010.1 0.0
03/04:21pm 31.5 26.0 5.8 20 13.7 SW 24 46 13 25 1010.2 1010.1 0.0
03/04:18pm 31.5 26.4 6.1 20 13.6 SW 22 46 12 25 1010.1 1010.0 0.0
03/04:00pm 31.6 29.5 5.7 19 13.8 WNW 6 13 3 7 1010.3 1010.2 0.0
03/03:30pm 30.3 27.2 5.4 20 13.1 ENE 11 17 6 9 1010.7 1010.6 0.0
03/03:00pm 30.6 27.5 3.6 18 13.8 NNW 9 19 5 10 1011.0 1010.9 0.0
03/02:30pm 29.3 26.7 4.1 20 12.9 E 7 20 4 11 1011.6 1011.4 0.0
03/02:00pm 28.3 25.5 5.1 23 12.0 N 9 15 5 8 1012.0 1011.8 0.0
03/01:30pm 28.0 24.9 5.5 24 11.7 NNE 11 19 6 10 1012.4 1012.2 0.0
03/01:00pm 27.1 24.1 6.0 26 11.0 NE 11 19 6 10 1012.7 1012.5 0.0
03/12:30pm 25.7 21.9 3.7 24 10.9 NE 13 24 7 13 1013.0 1012.8 0.0
03/12:00pm 25.3 21.6 4.6 26 10.4 NE 13 22 7 12 1013.6 1013.4 0.0
03/11:30am 22.7 19.0 4.7 31 8.9 ENE 13 20 7 11 1014.0 1013.8 0.0
03/11:00am 21.6 18.7 4.4 32 8.4 ENE 9 19 5 10 1014.6 1014.4 0.0
03/10:30am 19.2 16.0 5.0 39 6.9 E 11 17 6 9 1014.7 1014.5 0.0
03/10:00am 18.3 16.0 5.6 43 6.2 ENE 7 15 4 8 1014.9 1014.7 0.0
03/09:30am 17.3 15.2 5.8 46 5.6 S 6 11 3 6 1015.6 1015.4 0.0
03/09:00am 15.8 13.5 5.6 50 4.9 SSE 7 11 4 6 1016.0 1015.8 0.0
03/08:30am 14.5 11.4 5.7 55 4.2 SSE 11 17 6 9 1015.8 1015.6 0.0
03/08:00am 13.8 11.0 5.3 56 4.0 SSE 9 15 5 8 1016.0 1015.8 0.0
03/07:30am 12.7 10.0 5.4 61 3.4 S 9 13 5 7 1016.0 1015.8 0.0
03/07:00am 11.1 8.4 5.7 69 2.5 SW 9 11 5 6 1015.9 1015.7 0.0
03/06:30am 8.2 4.9 4.6 78 1.6 WSW 11 13 6 7 1015.6 1015.4 0.0
03/06:00am 7.3 3.9 4.1 80 1.4 WSW 11 13 6 7 1015.5 1015.3 0.0
03/05:30am 6.6 3.2 3.8 82 1.2 WSW 11 13 6 7 1015.4 1015.2 0.0

Other Formats:

Comma delimited format used in spreadsheet applications
http://www.bom.gov.au/fwo/IDS60801/IDS60801.95818.axf

JavaScript Object Notation format (JSON) in row-major order
http://www.bom.gov.au/fwo/IDS60801/IDS60801.95818.json